createdAt,value
2024-03-26T00:00:07.599Z,4.69
2024-03-26T00:00:38.128Z,4.69
2024-03-26T00:01:09.032Z,4.69
2024-03-26T00:01:41.418Z,4.69
2024-03-26T00:02:17.356Z,4.69
2024-03-26T00:02:41.788Z,4.68
2024-03-26T00:03:12.720Z,4.65
2024-03-26T00:03:43.644Z,4.64
2024-03-26T00:04:14.553Z,4.65
2024-03-26T00:04:44.081Z,4.65
2024-03-26T00:05:16.063Z,4.67
2024-03-26T00:05:47.002Z,4.67
2024-03-26T00:06:16.526Z,4.68
2024-03-26T00:06:48.517Z,4.68
2024-03-26T00:07:19.503Z,4.67
2024-03-26T00:07:50.425Z,4.65
2024-03-26T00:08:19.937Z,4.65
2024-03-26T00:08:51.852Z,4.65
2024-03-26T00:09:22.788Z,4.62
2024-03-26T00:09:53.701Z,4.59
2024-03-26T00:10:24.609Z,4.56
2024-03-26T00:10:55.518Z,4.54
2024-03-26T00:11:26.525Z,4.54
2024-03-26T00:11:57.450Z,4.56
2024-03-26T00:12:28.349Z,4.56
2024-03-26T00:12:59.335Z,4.56
2024-03-26T00:13:30.323Z,4.54
2024-03-26T00:14:01.230Z,4.56
2024-03-26T00:14:32.135Z,4.56
2024-03-26T00:15:03.137Z,4.57
2024-03-26T00:15:34.047Z,4.57
2024-03-26T00:16:04.959Z,4.59
2024-03-26T00:16:35.871Z,4.61
2024-03-26T00:17:37.711Z,4.54
2024-03-26T00:18:08.665Z,4.53
2024-03-26T00:18:39.589Z,4.50
2024-03-26T00:19:10.514Z,4.51
2024-03-26T00:19:41.426Z,4.50
2024-03-26T00:20:12.354Z,4.49
2024-03-26T00:20:42.886Z,4.47
2024-03-26T00:21:13.821Z,4.43
2024-03-26T00:22:15.688Z,4.43
2024-03-26T00:22:46.590Z,4.43
2024-03-26T00:23:17.500Z,4.42
2024-03-26T00:23:48.417Z,4.39
2024-03-26T00:24:19.314Z,4.42
2024-03-26T00:24:50.210Z,4.36
2024-03-26T00:25:19.727Z,4.42
2024-03-26T00:25:51.637Z,4.38
2024-03-26T00:26:22.537Z,4.39
2024-03-26T00:26:53.465Z,4.39
2024-03-26T00:27:24.384Z,4.39
2024-03-26T00:27:54.117Z,4.42
2024-03-26T00:28:26.043Z,4.39
2024-03-26T00:28:56.942Z,4.42
2024-03-26T00:29:27.878Z,4.43
2024-03-26T00:29:58.830Z,4.38
2024-03-26T00:30:29.779Z,4.36
2024-03-26T00:31:00.723Z,4.34
2024-03-26T00:31:31.670Z,4.29
2024-03-26T00:32:02.610Z,4.31
2024-03-26T00:32:33.524Z,4.31
2024-03-26T00:33:04.453Z,4.29
2024-03-26T00:33:35.384Z,4.31
2024-03-26T00:34:06.300Z,4.31
2024-03-26T00:34:37.204Z,4.29
2024-03-26T00:35:08.106Z,4.28
2024-03-26T00:35:39.045Z,4.29
2024-03-26T00:36:09.965Z,4.26
2024-03-26T00:36:40.864Z,4.28
2024-03-26T00:37:11.775Z,4.29
2024-03-26T00:37:41.293Z,4.31
2024-03-26T00:38:13.236Z,4.32
2024-03-26T00:38:44.147Z,4.36
2024-03-26T00:39:46.021Z,4.29
2024-03-26T00:40:16.957Z,4.29
2024-03-26T00:40:47.884Z,4.28
2024-03-26T00:41:18.782Z,4.26
2024-03-26T00:41:49.683Z,4.26
2024-03-26T00:42:20.597Z,4.26
2024-03-26T00:42:51.506Z,4.21
2024-03-26T00:43:22.445Z,4.24
2024-03-26T00:43:53.372Z,4.20
2024-03-26T00:44:24.338Z,4.18
2024-03-26T00:44:55.235Z,4.18
2024-03-26T00:45:26.133Z,4.20
2024-03-26T00:45:57.078Z,4.21
2024-03-26T00:46:29.521Z,4.21
2024-03-26T00:46:57.879Z,4.20
2024-03-26T00:47:29.686Z,4.20
2024-03-26T00:48:00.627Z,4.20
2024-03-26T00:48:31.627Z,4.20
2024-03-26T00:49:02.526Z,4.17
2024-03-26T00:49:33.437Z,4.16
2024-03-26T00:50:04.344Z,4.17
2024-03-26T00:50:35.301Z,4.17
2024-03-26T00:51:06.252Z,4.17
2024-03-26T00:51:37.168Z,4.18
2024-03-26T00:52:08.068Z,4.21
2024-03-26T00:52:38.989Z,4.21
2024-03-26T00:53:09.915Z,4.24
2024-03-26T00:53:40.910Z,4.21
2024-03-26T00:54:11.378Z,4.18
2024-03-26T00:54:42.297Z,4.17
2024-03-26T00:55:13.199Z,4.17
2024-03-26T00:55:44.143Z,4.17
2024-03-26T00:56:15.055Z,4.16
2024-03-26T00:56:46.061Z,4.14
2024-03-26T00:57:16.949Z,4.13
2024-03-26T00:57:46.496Z,4.16
2024-03-26T00:58:18.438Z,4.16
2024-03-26T00:58:49.365Z,4.17
2024-03-26T00:59:20.310Z,4.11
2024-03-26T00:59:51.266Z,4.10
2024-03-26T01:00:22.174Z,4.06
2024-03-26T01:00:53.073Z,4.08
2024-03-26T01:01:24.028Z,4.07
2024-03-26T01:01:54.953Z,4.08
2024-03-26T01:02:25.870Z,4.08
2024-03-26T01:02:56.776Z,4.07
2024-03-26T01:03:27.682Z,4.07
2024-03-26T01:03:58.614Z,4.06
2024-03-26T01:04:29.560Z,4.07
2024-03-26T01:05:00.486Z,4.07
2024-03-26T01:05:31.403Z,4.08
2024-03-26T01:06:02.322Z,4.10
2024-03-26T01:06:33.221Z,4.08
2024-03-26T01:07:02.732Z,4.10
2024-03-26T01:07:34.648Z,4.11
2024-03-26T01:08:05.564Z,4.08
2024-03-26T01:08:36.476Z,4.07
2024-03-26T01:09:07.017Z,4.08
2024-03-26T01:10:09.190Z,4.08
2024-03-26T01:10:39.582Z,4.06
2024-03-26T01:11:10.485Z,4.06
2024-03-26T01:11:41.426Z,4.07
2024-03-26T01:12:12.331Z,4.06
2024-03-26T01:12:43.242Z,4.06
2024-03-26T01:13:14.047Z,4.06
2024-03-26T01:13:46.273Z,4.02
2024-03-26T01:14:15.842Z,3.99
2024-03-26T01:14:46.799Z,3.99
2024-03-26T01:15:17.764Z,4.00
2024-03-26T01:15:47.301Z,3.99
2024-03-26T01:16:19.275Z,4.04
2024-03-26T01:16:50.206Z,4.02
2024-03-26T01:17:21.108Z,4.02
2024-03-26T01:17:52.016Z,4.04
2024-03-26T01:18:22.939Z,4.06
2024-03-26T01:18:53.862Z,4.02
2024-03-26T01:19:24.761Z,3.99
2024-03-26T01:19:55.664Z,3.95
2024-03-26T01:20:26.597Z,3.93
2024-03-26T01:20:57.496Z,3.92
2024-03-26T01:21:28.435Z,3.89
2024-03-26T01:21:59.378Z,3.90
2024-03-26T01:22:29.042Z,3.92
2024-03-26T01:23:01.033Z,3.93
2024-03-26T01:23:31.935Z,3.90
2024-03-26T01:24:02.838Z,3.92
2024-03-26T01:24:33.748Z,3.90
2024-03-26T01:25:04.325Z,3.92
2024-03-26T01:25:35.261Z,3.90
2024-03-26T01:26:06.195Z,3.93
2024-03-26T01:26:37.125Z,3.93
2024-03-26T01:27:38.833Z,3.90
2024-03-26T01:28:09.735Z,3.89
2024-03-26T01:28:40.639Z,3.89
2024-03-26T01:29:11.610Z,3.89
2024-03-26T01:29:43.638Z,3.86
2024-03-26T01:30:14.506Z,3.88
2024-03-26T01:30:44.419Z,3.88
2024-03-26T01:31:15.336Z,3.89
2024-03-26T01:31:46.298Z,3.86
2024-03-26T01:32:17.221Z,3.86
2024-03-26T01:32:48.135Z,3.84
2024-03-26T01:33:19.046Z,3.82
2024-03-26T01:33:49.945Z,3.81
2024-03-26T01:34:20.759Z,3.80
2024-03-26T01:34:51.566Z,3.80
2024-03-26T01:35:22.470Z,3.82
2024-03-26T01:35:53.480Z,3.82
2024-03-26T01:36:24.401Z,3.81
2024-03-26T01:36:55.314Z,3.81
2024-03-26T01:37:26.219Z,3.82
2024-03-26T01:37:55.730Z,3.84
2024-03-26T01:38:27.641Z,3.86
2024-03-26T01:38:58.577Z,3.82
2024-03-26T01:39:29.490Z,3.84
2024-03-26T01:40:00.479Z,3.81
2024-03-26T01:40:31.380Z,3.82
2024-03-26T01:41:02.299Z,3.80
2024-03-26T01:41:33.218Z,3.80
2024-03-26T01:42:02.774Z,3.80
2024-03-26T01:42:34.780Z,3.78
2024-03-26T01:43:04.403Z,3.75
2024-03-26T01:43:36.205Z,3.72
2024-03-26T01:44:07.127Z,3.72
2024-03-26T01:44:36.663Z,3.68
2024-03-26T01:45:08.591Z,3.68
2024-03-26T01:45:39.523Z,3.70
2024-03-26T01:46:10.450Z,3.72
2024-03-26T01:46:41.407Z,3.77
2024-03-26T01:47:10.950Z,3.75
2024-03-26T01:47:42.911Z,3.77
2024-03-26T01:48:13.827Z,3.77
2024-03-26T01:48:44.739Z,3.75
2024-03-26T01:49:14.351Z,3.72
2024-03-26T01:49:46.265Z,3.74
2024-03-26T01:50:17.182Z,3.74
2024-03-26T01:50:48.092Z,3.75
2024-03-26T01:51:19.066Z,3.75
2024-03-26T01:51:49.976Z,3.74
2024-03-26T01:52:20.914Z,3.74
2024-03-26T01:52:51.851Z,3.74
2024-03-26T01:53:22.824Z,3.72
2024-03-26T01:53:52.453Z,3.72
2024-03-26T01:54:24.276Z,3.71
2024-03-26T01:54:55.187Z,3.70
2024-03-26T01:55:24.735Z,3.71
2024-03-26T01:55:56.640Z,3.72
2024-03-26T01:56:27.580Z,3.72
2024-03-26T01:56:57.981Z,3.71
2024-03-26T01:57:27.645Z,3.67
2024-03-26T01:57:59.051Z,3.64
2024-03-26T01:58:30.064Z,3.63
2024-03-26T01:59:01.200Z,3.64
2024-03-26T01:59:31.715Z,3.63
2024-03-26T02:00:02.146Z,3.62
2024-03-26T02:00:33.075Z,3.59
2024-03-26T02:01:02.693Z,3.59
2024-03-26T02:01:33.308Z,3.59
2024-03-26T02:02:04.721Z,3.56
2024-03-26T02:02:35.697Z,3.54
2024-03-26T02:03:06.592Z,3.54
2024-03-26T02:03:37.511Z,3.52
2024-03-26T02:04:08.415Z,3.53
2024-03-26T02:04:40.492Z,3.53
2024-03-26T02:05:09.908Z,3.49
2024-03-26T02:06:11.758Z,3.46
2024-03-26T02:06:42.670Z,3.45
2024-03-26T02:07:13.654Z,3.44
2024-03-26T02:07:44.579Z,3.41
2024-03-26T02:08:14.185Z,3.41
2024-03-26T02:08:45.649Z,3.44
2024-03-26T02:09:16.586Z,3.39
2024-03-26T02:09:47.505Z,3.37
2024-03-26T02:10:17.114Z,3.41
2024-03-26T02:10:49.019Z,3.37
2024-03-26T02:11:19.950Z,3.37
2024-03-26T02:11:50.883Z,3.34
2024-03-26T02:12:20.534Z,3.34
2024-03-26T02:12:52.465Z,3.34
2024-03-26T02:13:23.385Z,3.33
2024-03-26T02:13:54.292Z,3.30
2024-03-26T02:14:25.253Z,3.31
2024-03-26T02:14:56.167Z,3.31
2024-03-26T02:15:27.096Z,3.30
2024-03-26T02:15:57.896Z,3.31
2024-03-26T02:16:29.731Z,3.33
2024-03-26T02:16:59.627Z,3.33
2024-03-26T02:17:30.612Z,3.31
2024-03-26T02:18:01.532Z,3.31
2024-03-26T02:19:03.387Z,3.28
2024-03-26T02:19:34.231Z,3.25
2024-03-26T02:20:03.879Z,3.25
2024-03-26T02:20:34.518Z,3.22
2024-03-26T02:21:06.456Z,3.22
2024-03-26T02:21:37.435Z,3.22
2024-03-26T02:22:08.349Z,3.19
2024-03-26T02:22:39.273Z,3.19
2024-03-26T02:23:10.212Z,3.20
2024-03-26T02:23:41.140Z,3.20
2024-03-26T02:24:12.065Z,3.22
2024-03-26T02:24:42.993Z,3.22
2024-03-26T02:25:13.930Z,3.22
2024-03-26T02:25:44.866Z,3.22
2024-03-26T02:26:15.772Z,3.20
2024-03-26T02:26:46.729Z,3.20
2024-03-26T02:27:17.643Z,3.22
2024-03-26T02:27:48.586Z,3.19
2024-03-26T02:28:19.514Z,3.20
2024-03-26T02:28:50.414Z,3.17
2024-03-26T02:29:21.324Z,3.13
2024-03-26T02:29:52.269Z,3.15
2024-03-26T02:30:23.191Z,3.13
2024-03-26T02:31:27.890Z,3.12
2024-03-26T02:31:55.846Z,3.13
2024-03-26T02:32:27.783Z,3.07
2024-03-26T02:32:56.664Z,3.08
2024-03-26T02:33:28.622Z,3.10
2024-03-26T02:33:59.549Z,3.10
2024-03-26T02:34:31.901Z,3.12
2024-03-26T02:35:01.224Z,3.12
2024-03-26T02:35:32.204Z,3.10
2024-03-26T02:36:03.098Z,3.05
2024-03-26T02:36:34.012Z,3.04
2024-03-26T02:37:04.936Z,3.07
2024-03-26T02:37:34.562Z,3.01
2024-03-26T02:38:06.379Z,2.99
2024-03-26T02:38:37.294Z,3.01
2024-03-26T02:39:08.210Z,2.99
2024-03-26T02:39:38.084Z,2.97
2024-03-26T02:40:10.026Z,2.98
2024-03-26T02:40:40.823Z,2.98
2024-03-26T02:41:10.452Z,2.95
2024-03-26T02:41:42.342Z,2.92
2024-03-26T02:42:13.321Z,2.94
2024-03-26T02:42:44.255Z,2.94
2024-03-26T02:43:15.170Z,2.94
2024-03-26T02:43:46.093Z,2.87
2024-03-26T02:44:17.014Z,2.89
2024-03-26T02:44:47.808Z,2.89
2024-03-26T02:45:18.713Z,2.94
2024-03-26T02:45:49.621Z,2.92
2024-03-26T02:46:20.562Z,2.92
2024-03-26T02:46:52.510Z,2.90
2024-03-26T02:47:22.292Z,2.90
2024-03-26T02:47:53.190Z,2.92
2024-03-26T02:48:55.015Z,2.89
2024-03-26T02:49:25.928Z,2.89
2024-03-26T02:49:56.844Z,2.84
2024-03-26T02:50:26.478Z,2.86
2024-03-26T02:50:58.395Z,2.86
2024-03-26T02:51:29.310Z,2.81
2024-03-26T02:52:00.225Z,2.80
2024-03-26T02:52:31.186Z,2.77
2024-03-26T02:53:01.664Z,2.76
2024-03-26T02:53:32.570Z,2.77
2024-03-26T02:54:02.187Z,2.76
2024-03-26T02:54:34.117Z,2.76
2024-03-26T02:55:05.057Z,2.77
2024-03-26T02:55:35.871Z,2.77
2024-03-26T02:56:06.819Z,2.76
2024-03-26T02:56:37.725Z,2.74
2024-03-26T02:57:08.528Z,2.74
2024-03-26T02:57:39.433Z,2.77
2024-03-26T02:58:10.344Z,2.74
2024-03-26T02:58:41.284Z,2.69
2024-03-26T02:59:12.193Z,2.66
2024-03-26T02:59:43.102Z,2.63
2024-03-26T03:00:12.727Z,2.59
2024-03-26T03:00:43.495Z,2.58
2024-03-26T03:01:46.292Z,2.53
2024-03-26T03:02:17.192Z,2.55
2024-03-26T03:02:48.113Z,2.55
2024-03-26T03:03:19.039Z,2.56
2024-03-26T03:03:49.956Z,2.59
2024-03-26T03:04:20.953Z,2.58
2024-03-26T03:04:51.858Z,2.59
2024-03-26T03:05:22.802Z,2.62
2024-03-26T03:06:24.663Z,2.62
2024-03-26T03:06:55.581Z,2.62
2024-03-26T03:07:26.520Z,2.62
2024-03-26T03:07:57.434Z,2.62
2024-03-26T03:08:28.340Z,2.65
2024-03-26T03:08:59.253Z,2.62
2024-03-26T03:09:30.204Z,2.62
2024-03-26T03:10:01.156Z,2.59
2024-03-26T03:10:32.079Z,2.55
2024-03-26T03:11:02.980Z,2.50
2024-03-26T03:11:33.898Z,2.47
2024-03-26T03:12:04.823Z,2.45
2024-03-26T03:12:35.735Z,2.44
2024-03-26T03:13:06.627Z,2.44
2024-03-26T03:13:37.429Z,2.44
2024-03-26T03:14:08.334Z,2.45
2024-03-26T03:14:39.137Z,2.48
2024-03-26T03:15:10.061Z,2.48
2024-03-26T03:15:40.979Z,2.51
2024-03-26T03:16:11.907Z,2.53
2024-03-26T03:16:42.875Z,2.53
2024-03-26T03:17:13.775Z,2.53
2024-03-26T03:17:44.696Z,2.51
2024-03-26T03:18:15.624Z,2.48
2024-03-26T03:18:45.154Z,2.48
2024-03-26T03:19:17.069Z,2.51
2024-03-26T03:19:47.987Z,2.50
2024-03-26T03:20:18.907Z,2.47
2024-03-26T03:20:49.863Z,2.45
2024-03-26T03:21:21.498Z,2.41
2024-03-26T03:21:51.405Z,2.36
2024-03-26T03:22:22.326Z,2.36
2024-03-26T03:22:53.298Z,2.33
2024-03-26T03:23:55.121Z,2.30
2024-03-26T03:24:26.044Z,2.27
2024-03-26T03:24:56.943Z,2.27
2024-03-26T03:25:27.851Z,2.29
2024-03-26T03:25:58.780Z,2.29
2024-03-26T03:26:29.698Z,2.32
2024-03-26T03:27:00.633Z,2.30
2024-03-26T03:27:31.558Z,2.29
2024-03-26T03:28:02.466Z,2.29
2024-03-26T03:28:33.377Z,2.26
2024-03-26T03:29:04.319Z,2.27
2024-03-26T03:29:35.252Z,2.25
2024-03-26T03:30:06.187Z,2.23
2024-03-26T03:30:37.098Z,2.20
2024-03-26T03:31:08.050Z,2.19
2024-03-26T03:31:38.950Z,2.20
2024-03-26T03:32:09.772Z,2.19
2024-03-26T03:32:40.683Z,2.19
2024-03-26T03:33:11.582Z,2.19
2024-03-26T03:33:42.505Z,2.19
2024-03-26T03:34:13.427Z,2.20
2024-03-26T03:34:44.354Z,2.19
2024-03-26T03:35:13.889Z,2.23
2024-03-26T03:35:45.804Z,2.25
2024-03-26T03:36:47.640Z,2.32
2024-03-26T03:37:18.555Z,2.33
2024-03-26T03:37:49.453Z,2.37
2024-03-26T03:38:20.426Z,2.38
2024-03-26T03:38:51.331Z,2.37
2024-03-26T03:39:22.254Z,2.36
2024-03-26T03:39:51.836Z,2.29
2024-03-26T03:40:23.766Z,2.27
2024-03-26T03:41:25.441Z,2.22
2024-03-26T03:41:56.338Z,2.20
2024-03-26T03:42:27.275Z,2.22
2024-03-26T03:42:58.176Z,2.22
2024-03-26T03:43:29.108Z,2.19
2024-03-26T03:44:00.017Z,2.19
2024-03-26T03:44:30.950Z,2.20
2024-03-26T03:45:01.504Z,2.18
2024-03-26T03:45:31.168Z,2.12
2024-03-26T03:46:03.112Z,2.08
2024-03-26T03:46:34.056Z,2.07
2024-03-26T03:47:04.998Z,2.08
2024-03-26T03:47:35.916Z,2.05
2024-03-26T03:48:06.831Z,2.04
2024-03-26T03:48:37.728Z,2.04
2024-03-26T03:49:07.281Z,2.02
2024-03-26T03:49:39.177Z,2.01
2024-03-26T03:50:10.113Z,2.02
2024-03-26T03:50:39.624Z,2.04
2024-03-26T03:51:11.522Z,2.04
2024-03-26T03:51:41.040Z,2.05
2024-03-26T03:52:12.939Z,2.04
2024-03-26T03:52:43.957Z,2.04
2024-03-26T03:53:14.862Z,2.04
2024-03-26T03:54:15.254Z,2.02
2024-03-26T03:54:47.182Z,2.00
2024-03-26T03:55:18.088Z,1.93
2024-03-26T03:55:49.022Z,1.93
2024-03-26T03:56:19.961Z,1.90
2024-03-26T03:56:49.586Z,1.90
2024-03-26T03:57:21.030Z,1.90
2024-03-26T03:57:51.961Z,1.90
2024-03-26T03:58:22.891Z,1.92
2024-03-26T03:58:52.494Z,1.93
2024-03-26T03:59:23.052Z,1.93
2024-03-26T03:59:54.989Z,1.92
2024-03-26T04:00:25.910Z,1.90
2024-03-26T04:00:55.569Z,1.88
2024-03-26T04:01:27.480Z,1.88
2024-03-26T04:01:58.459Z,1.86
2024-03-26T04:02:27.994Z,1.85
2024-03-26T04:02:59.890Z,1.85
2024-03-26T04:03:30.784Z,1.83
2024-03-26T04:04:01.708Z,1.86
2024-03-26T04:04:32.626Z,1.88
2024-03-26T04:05:02.160Z,1.86
2024-03-26T04:05:34.071Z,1.86
2024-03-26T04:06:04.895Z,1.86
2024-03-26T04:07:06.689Z,1.88
2024-03-26T04:07:37.605Z,1.85
2024-03-26T04:08:08.520Z,1.82
2024-03-26T04:08:38.139Z,1.79
2024-03-26T04:09:10.088Z,1.77
2024-03-26T04:09:39.700Z,1.77
2024-03-26T04:10:10.238Z,1.75
2024-03-26T04:10:42.169Z,1.77
2024-03-26T04:11:13.109Z,1.79
2024-03-26T04:11:44.026Z,1.81
2024-03-26T04:12:14.945Z,1.81
2024-03-26T04:12:44.483Z,1.77
2024-03-26T04:13:16.419Z,1.74
2024-03-26T04:13:46.033Z,1.72
2024-03-26T04:14:17.935Z,1.70
2024-03-26T04:14:48.857Z,1.70
2024-03-26T04:15:19.832Z,1.68
2024-03-26T04:15:50.737Z,1.70
2024-03-26T04:16:21.657Z,1.68
2024-03-26T04:16:52.554Z,1.65
2024-03-26T04:17:23.369Z,1.67
2024-03-26T04:17:54.280Z,1.67
2024-03-26T04:18:24.820Z,1.68
2024-03-26T04:18:54.428Z,1.65
2024-03-26T04:19:26.343Z,1.65
2024-03-26T04:19:55.977Z,1.64
2024-03-26T04:20:27.896Z,1.63
2024-03-26T04:20:57.524Z,1.63
2024-03-26T04:21:29.354Z,1.64
2024-03-26T04:22:00.263Z,1.63
2024-03-26T04:22:31.197Z,1.65
2024-03-26T04:23:00.783Z,1.64
2024-03-26T04:23:32.688Z,1.64
2024-03-26T04:24:03.592Z,1.60
2024-03-26T04:24:34.495Z,1.56
2024-03-26T04:25:05.404Z,1.56
2024-03-26T04:25:36.325Z,1.56
2024-03-26T04:26:07.236Z,1.56
2024-03-26T04:26:38.145Z,1.57
2024-03-26T04:27:09.048Z,1.57
2024-03-26T04:27:39.877Z,1.56
2024-03-26T04:28:10.777Z,1.52
2024-03-26T04:28:41.742Z,1.53
2024-03-26T04:29:11.283Z,1.50
2024-03-26T04:29:43.213Z,1.52
2024-03-26T04:30:14.138Z,1.52
2024-03-26T04:30:45.045Z,1.53
2024-03-26T04:31:15.958Z,1.53
2024-03-26T04:31:46.800Z,1.54
2024-03-26T04:32:17.690Z,1.52
2024-03-26T04:32:47.236Z,1.52
2024-03-26T04:33:19.170Z,1.52
2024-03-26T04:33:48.819Z,1.52
2024-03-26T04:34:20.755Z,1.52
2024-03-26T04:34:51.663Z,1.50
2024-03-26T04:35:21.279Z,1.52
2024-03-26T04:35:51.953Z,1.53
2024-03-26T04:36:23.858Z,1.53
2024-03-26T04:36:54.724Z,1.54
2024-03-26T04:37:26.806Z,1.53
2024-03-26T04:37:56.301Z,1.52
2024-03-26T04:38:27.252Z,1.49
2024-03-26T04:38:56.866Z,1.49
2024-03-26T04:39:28.770Z,1.46
2024-03-26T04:39:59.689Z,1.44
2024-03-26T04:40:30.550Z,1.46
2024-03-26T04:41:01.333Z,1.44
2024-03-26T04:41:32.175Z,1.47
2024-03-26T04:42:03.060Z,1.52
2024-03-26T04:42:33.934Z,1.52
2024-03-26T04:43:04.841Z,1.50
2024-03-26T04:43:35.775Z,1.47
2024-03-26T04:44:06.712Z,1.46
2024-03-26T04:44:37.520Z,1.44
2024-03-26T04:45:08.392Z,1.43
2024-03-26T04:45:39.243Z,1.43
2024-03-26T04:46:10.124Z,1.42
2024-03-26T04:46:41.029Z,1.38
2024-03-26T04:47:10.647Z,1.38
2024-03-26T04:47:41.223Z,1.39
2024-03-26T04:48:13.106Z,1.39
2024-03-26T04:48:43.962Z,1.42
2024-03-26T04:49:14.839Z,1.42
2024-03-26T04:50:16.559Z,1.38
2024-03-26T04:50:47.424Z,1.39
2024-03-26T04:51:18.337Z,1.36
2024-03-26T04:51:47.812Z,1.38
2024-03-26T04:52:19.678Z,1.42
2024-03-26T04:52:50.528Z,1.39
2024-03-26T04:53:20.517Z,1.44
2024-03-26T04:53:52.386Z,1.44
2024-03-26T04:54:23.268Z,1.47
2024-03-26T04:54:52.838Z,1.49
2024-03-26T04:55:24.711Z,1.47
2024-03-26T04:55:55.593Z,1.53
2024-03-26T04:56:26.449Z,1.54
2024-03-26T04:56:58.124Z,1.56
2024-03-26T04:57:27.672Z,1.60
2024-03-26T04:57:58.514Z,1.60
2024-03-26T04:58:29.385Z,1.60
2024-03-26T04:58:59.262Z,1.65
2024-03-26T04:59:31.121Z,1.68
2024-03-26T05:00:01.896Z,1.68
2024-03-26T05:00:32.748Z,1.72
2024-03-26T05:01:03.597Z,1.77
2024-03-26T05:01:33.383Z,1.79
2024-03-26T05:02:05.282Z,1.79
2024-03-26T05:03:07.115Z,1.82
2024-03-26T05:03:38.639Z,1.83
2024-03-26T05:04:09.566Z,1.85
2024-03-26T05:04:39.436Z,1.83
2024-03-26T05:05:10.324Z,1.81
2024-03-26T05:05:41.179Z,1.81
2024-03-26T05:06:12.042Z,1.77
2024-03-26T05:06:42.931Z,1.79
2024-03-26T05:07:13.864Z,1.79
2024-03-26T05:07:44.805Z,1.75
2024-03-26T05:08:15.720Z,1.75
2024-03-26T05:08:46.600Z,1.75
2024-03-26T05:09:17.566Z,1.74
2024-03-26T05:09:48.431Z,1.71
2024-03-26T05:10:19.294Z,1.68
2024-03-26T05:10:50.143Z,1.70
2024-03-26T05:11:21.002Z,1.67
2024-03-26T05:11:51.923Z,1.64
2024-03-26T05:12:22.814Z,1.63
2024-03-26T05:12:53.654Z,1.61
2024-03-26T05:13:24.505Z,1.56
2024-03-26T05:13:55.398Z,1.54
2024-03-26T05:14:25.354Z,1.49
2024-03-26T05:14:57.241Z,1.52
2024-03-26T05:15:28.118Z,1.52
2024-03-26T05:15:58.868Z,1.50
2024-03-26T05:16:29.716Z,1.50
2024-03-26T05:17:00.491Z,1.52
2024-03-26T05:17:31.392Z,1.50
2024-03-26T05:18:00.864Z,1.52
2024-03-26T05:18:32.722Z,1.52
2024-03-26T05:19:03.632Z,1.53
2024-03-26T05:19:34.562Z,1.54
2024-03-26T05:20:36.375Z,1.60
2024-03-26T05:21:07.243Z,1.60
2024-03-26T05:21:38.128Z,1.57
2024-03-26T05:22:08.979Z,1.60
2024-03-26T05:22:39.852Z,1.63
2024-03-26T05:23:10.699Z,1.64
2024-03-26T05:23:41.631Z,1.65
2024-03-26T05:24:12.489Z,1.64
2024-03-26T05:24:42.472Z,1.61
2024-03-26T05:25:14.365Z,1.63
2024-03-26T05:25:45.213Z,1.61
2024-03-26T05:26:16.090Z,1.60
2024-03-26T05:26:47.000Z,1.54
2024-03-26T05:27:17.896Z,1.50
2024-03-26T05:27:48.762Z,1.49
2024-03-26T05:28:19.610Z,1.47
2024-03-26T05:28:51.676Z,1.44
2024-03-26T05:29:21.255Z,1.44
2024-03-26T05:29:52.202Z,1.47
2024-03-26T05:30:23.061Z,1.49
2024-03-26T05:30:53.924Z,1.50
2024-03-26T05:31:24.795Z,1.53
2024-03-26T05:31:55.658Z,1.52
2024-03-26T05:32:26.500Z,1.52
2024-03-26T05:33:28.222Z,1.54
2024-03-26T05:33:59.079Z,1.56
2024-03-26T05:34:29.946Z,1.60
2024-03-26T05:35:00.800Z,1.61
2024-03-26T05:35:30.327Z,1.63
2024-03-26T05:36:02.222Z,1.64
2024-03-26T05:36:33.107Z,1.63
2024-03-26T05:37:03.977Z,1.65
2024-03-26T05:37:34.870Z,1.65
2024-03-26T05:38:05.737Z,1.64
2024-03-26T05:38:36.605Z,1.65
2024-03-26T05:39:07.473Z,1.67
2024-03-26T05:39:38.329Z,1.67
2024-03-26T05:40:09.177Z,1.67
2024-03-26T05:40:40.047Z,1.68
2024-03-26T05:41:10.799Z,1.72
2024-03-26T05:41:41.763Z,1.75
2024-03-26T05:42:12.634Z,1.74
2024-03-26T05:42:43.516Z,1.77
2024-03-26T05:43:14.365Z,1.79
2024-03-26T05:43:45.221Z,1.79
2024-03-26T05:44:16.080Z,1.79
2024-03-26T05:44:46.930Z,1.79
2024-03-26T05:45:17.820Z,1.77
2024-03-26T05:45:48.682Z,1.79
2024-03-26T05:46:19.639Z,1.81
2024-03-26T05:46:50.500Z,1.79
2024-03-26T05:47:21.365Z,1.79
2024-03-26T05:47:52.249Z,1.82
2024-03-26T05:48:24.250Z,1.81
2024-03-26T05:48:54.101Z,1.83
2024-03-26T05:49:24.962Z,1.88
2024-03-26T05:49:55.844Z,1.89
2024-03-26T05:50:57.571Z,1.90
2024-03-26T05:51:28.446Z,1.93
2024-03-26T05:51:59.324Z,1.92
2024-03-26T05:52:30.225Z,1.92
2024-03-26T05:53:01.097Z,1.95
2024-03-26T05:53:32.021Z,1.93
2024-03-26T05:54:02.960Z,1.93
2024-03-26T05:54:33.827Z,1.95
2024-03-26T05:55:04.694Z,1.98
2024-03-26T05:55:35.565Z,2.00
2024-03-26T05:56:09.118Z,1.98
2024-03-26T05:56:37.143Z,2.01
2024-03-26T05:57:08.017Z,2.00
2024-03-26T05:57:38.868Z,2.04
2024-03-26T05:58:09.729Z,2.04
2024-03-26T05:58:40.625Z,2.04
2024-03-26T05:59:11.490Z,2.05
2024-03-26T05:59:42.347Z,2.08
2024-03-26T06:00:13.276Z,2.08
2024-03-26T06:00:44.122Z,2.11
2024-03-26T06:01:14.992Z,2.09
2024-03-26T06:01:45.854Z,2.11
2024-03-26T06:02:15.822Z,2.15
2024-03-26T06:02:47.671Z,2.18
2024-03-26T06:03:49.380Z,2.18
2024-03-26T06:04:20.267Z,2.18
2024-03-26T06:04:51.242Z,2.18
2024-03-26T06:05:22.136Z,2.15
2024-03-26T06:05:51.716Z,2.12
2024-03-26T06:06:23.580Z,2.18
2024-03-26T06:06:54.443Z,2.20
2024-03-26T06:07:25.307Z,2.22
2024-03-26T06:07:56.173Z,2.26
2024-03-26T06:08:27.048Z,2.29
2024-03-26T06:08:57.921Z,2.29
2024-03-26T06:09:28.778Z,2.30
2024-03-26T06:09:59.654Z,2.32
2024-03-26T06:10:29.606Z,2.33
2024-03-26T06:11:01.490Z,2.37
2024-03-26T06:11:32.364Z,2.37
2024-03-26T06:12:04.944Z,2.40
2024-03-26T06:12:33.048Z,2.43
2024-03-26T06:13:07.601Z,2.43
2024-03-26T06:13:35.566Z,2.44
2024-03-26T06:14:06.450Z,2.45
2024-03-26T06:14:37.323Z,2.43
2024-03-26T06:15:08.141Z,2.44
2024-03-26T06:15:39.005Z,2.43
2024-03-26T06:16:09.874Z,2.44
2024-03-26T06:16:40.779Z,2.47
2024-03-26T06:17:11.621Z,2.47
2024-03-26T06:17:41.608Z,2.51
2024-03-26T06:18:13.475Z,2.56
2024-03-26T06:18:44.362Z,2.61
2024-03-26T06:19:15.243Z,2.61
2024-03-26T06:19:46.103Z,2.59
2024-03-26T06:20:16.949Z,2.61
2024-03-26T06:21:17.755Z,2.61
2024-03-26T06:21:49.643Z,2.62
2024-03-26T06:22:20.384Z,2.59
2024-03-26T06:22:51.241Z,2.61
2024-03-26T06:23:22.117Z,2.58
2024-03-26T06:23:52.987Z,2.63
2024-03-26T06:24:23.862Z,2.68
2024-03-26T06:24:54.608Z,2.69
2024-03-26T06:25:25.462Z,2.73
2024-03-26T06:25:56.314Z,2.74
2024-03-26T06:26:26.290Z,2.77
2024-03-26T06:26:58.154Z,2.79
2024-03-26T06:27:29.012Z,2.80
2024-03-26T06:27:58.547Z,2.81
2024-03-26T06:28:30.402Z,2.80
2024-03-26T06:29:00.363Z,2.81
2024-03-26T06:29:32.268Z,2.80
2024-03-26T06:30:03.172Z,2.79
2024-03-26T06:30:34.062Z,2.81
2024-03-26T06:31:03.647Z,2.83
2024-03-26T06:31:35.517Z,2.80
2024-03-26T06:32:06.407Z,2.81
2024-03-26T06:32:37.285Z,2.84
2024-03-26T06:33:08.166Z,2.87
2024-03-26T06:34:09.832Z,2.89
2024-03-26T06:34:40.698Z,2.89
2024-03-26T06:35:11.565Z,2.89
2024-03-26T06:35:41.151Z,2.92
2024-03-26T06:36:12.901Z,2.92
2024-03-26T06:36:43.750Z,2.95
2024-03-26T06:37:14.658Z,2.97
2024-03-26T06:37:45.512Z,2.98
2024-03-26T06:38:16.378Z,2.99
2024-03-26T06:38:45.943Z,3.02
2024-03-26T06:39:17.827Z,3.04
2024-03-26T06:39:48.584Z,3.08
2024-03-26T06:40:19.434Z,3.08
2024-03-26T06:40:50.295Z,3.12
2024-03-26T06:41:21.140Z,3.12
2024-03-26T06:41:52.179Z,3.13
2024-03-26T06:42:22.568Z,3.15
2024-03-26T06:42:53.448Z,3.17
2024-03-26T06:43:24.312Z,3.20
2024-03-26T06:43:54.283Z,3.20
2024-03-26T06:44:26.149Z,3.23
2024-03-26T06:44:55.765Z,3.28
2024-03-26T06:45:26.597Z,3.30
2024-03-26T06:45:58.451Z,3.34
2024-03-26T06:47:00.305Z,3.39
2024-03-26T06:47:29.895Z,3.39
2024-03-26T06:48:01.776Z,3.39
2024-03-26T06:48:32.643Z,3.39
2024-03-26T06:49:03.524Z,3.42
2024-03-26T06:49:34.381Z,3.44
2024-03-26T06:50:05.248Z,3.45
2024-03-26T06:50:35.998Z,3.46
2024-03-26T06:51:06.853Z,3.49
2024-03-26T06:51:37.726Z,3.50
2024-03-26T06:52:07.298Z,3.52
2024-03-26T06:52:39.070Z,3.50
2024-03-26T06:53:08.688Z,3.49
2024-03-26T06:53:40.444Z,3.46
2024-03-26T06:54:11.321Z,3.49
2024-03-26T06:54:42.173Z,3.49
2024-03-26T06:55:13.019Z,3.50
2024-03-26T06:55:43.869Z,3.53
2024-03-26T06:56:14.717Z,3.56
2024-03-26T06:56:45.581Z,3.56
2024-03-26T06:57:16.442Z,3.59
2024-03-26T06:57:47.293Z,3.59
2024-03-26T06:58:18.144Z,3.59
2024-03-26T06:58:48.897Z,3.60
2024-03-26T06:59:19.745Z,3.63
2024-03-26T06:59:49.296Z,3.62
2024-03-26T07:00:20.023Z,3.64
2024-03-26T07:00:51.894Z,3.63
2024-03-26T07:01:21.475Z,3.67
2024-03-26T07:01:53.324Z,3.67
2024-03-26T07:02:22.882Z,3.63
2024-03-26T07:02:53.418Z,3.64
2024-03-26T07:03:25.299Z,3.64